sensor_id;sensor_type;location;lat;lon;timestamp;P1;durP1;ratioP1;P2;durP2;ratioP2
21507;SDS011;10915;54.352;9.074;2023-08-30T00:00:15;7.37;;;5.73;;
21507;SDS011;10915;54.352;9.074;2023-08-30T00:02:44;6.17;;;4.83;;
21507;SDS011;10915;54.352;9.074;2023-08-30T00:05:10;8.37;;;4.87;;
21507;SDS011;10915;54.352;9.074;2023-08-30T00:07:36;6.37;;;4.63;;
21507;SDS011;10915;54.352;9.074;2023-08-30T00:10:02;7.47;;;5.50;;
21507;SDS011;10915;54.352;9.074;2023-08-30T00:12:28;6.17;;;4.43;;
21507;SDS011;10915;54.352;9.074;2023-08-30T00:14:54;4.97;;;4.13;;
21507;SDS011;10915;54.352;9.074;2023-08-30T00:17:20;5.47;;;4.20;;
21507;SDS011;10915;54.352;9.074;2023-08-30T00:19:46;7.03;;;5.23;;
21507;SDS011;10915;54.352;9.074;2023-08-30T00:22:13;7.07;;;4.37;;
21507;SDS011;10915;54.352;9.074;2023-08-30T00:24:39;6.17;;;4.93;;
21507;SDS011;10915;54.352;9.074;2023-08-30T00:27:04;8.73;;;5.77;;
21507;SDS011;10915;54.352;9.074;2023-08-30T00:29:30;7.33;;;4.83;;
21507;SDS011;10915;54.352;9.074;2023-08-30T00:31:56;7.77;;;6.30;;
21507;SDS011;10915;54.352;9.074;2023-08-30T00:34:21;8.00;;;6.50;;
21507;SDS011;10915;54.352;9.074;2023-08-30T00:36:47;8.70;;;6.57;;
21507;SDS011;10915;54.352;9.074;2023-08-30T00:39:13;8.20;;;7.03;;
21507;SDS011;10915;54.352;9.074;2023-08-30T00:41:39;9.73;;;7.77;;
21507;SDS011;10915;54.352;9.074;2023-08-30T00:44:04;11.97;;;9.00;;
21507;SDS011;10915;54.352;9.074;2023-08-30T00:46:30;11.23;;;9.10;;
21507;SDS011;10915;54.352;9.074;2023-08-30T00:48:58;12.80;;;9.70;;
21507;SDS011;10915;54.352;9.074;2023-08-30T00:51:26;13.20;;;11.10;;
21507;SDS011;10915;54.352;9.074;2023-08-30T00:53:54;16.17;;;10.23;;
21507;SDS011;10915;54.352;9.074;2023-08-30T00:56:20;15.63;;;10.30;;
21507;SDS011;10915;54.352;9.074;2023-08-30T00:58:46;10.80;;;9.67;;
21507;SDS011;10915;54.352;9.074;2023-08-30T01:01:14;12.20;;;10.37;;
21507;SDS011;10915;54.352;9.074;2023-08-30T01:03:41;14.90;;;10.87;;
21507;SDS011;10915;54.352;9.074;2023-08-30T01:06:07;11.10;;;9.77;;
21507;SDS011;10915;54.352;9.074;2023-08-30T01:08:32;12.17;;;10.37;;
21507;SDS011;10915;54.352;9.074;2023-08-30T01:13:33;12.97;;;10.67;;
21507;SDS011;10915;54.352;9.074;2023-08-30T01:16:05;13.63;;;10.37;;
21507;SDS011;10915;54.352;9.074;2023-08-30T01:18:32;11.73;;;10.33;;
21507;SDS011;10915;54.352;9.074;2023-08-30T01:21:00;12.97;;;11.37;;
21507;SDS011;10915;54.352;9.074;2023-08-30T01:23:48;15.17;;;12.27;;
21507;SDS011;10915;54.352;9.074;2023-08-30T01:26:26;13.97;;;10.77;;
21507;SDS011;10915;54.352;9.074;2023-08-30T01:29:04;15.27;;;12.17;;
21507;SDS011;10915;54.352;9.074;2023-08-30T01:31:34;19.97;;;13.50;;
21507;SDS011;10915;54.352;9.074;2023-08-30T01:34:03;20.83;;;14.67;;
21507;SDS011;10915;54.352;9.074;2023-08-30T01:36:29;23.87;;;17.33;;
21507;SDS011;10915;54.352;9.074;2023-08-30T01:38:56;23.73;;;18.37;;
21507;SDS011;10915;54.352;9.074;2023-08-30T01:41:24;27.00;;;19.47;;
21507;SDS011;10915;54.352;9.074;2023-08-30T01:43:51;30.87;;;21.20;;
21507;SDS011;10915;54.352;9.074;2023-08-30T01:46:18;33.63;;;23.10;;
21507;SDS011;10915;54.352;9.074;2023-08-30T01:48:46;27.37;;;20.23;;
21507;SDS011;10915;54.352;9.074;2023-08-30T01:51:14;27.87;;;20.07;;
21507;SDS011;10915;54.352;9.074;2023-08-30T01:53:42;26.47;;;19.47;;
21507;SDS011;10915;54.352;9.074;2023-08-30T01:56:09;32.10;;;23.37;;
21507;SDS011;10915;54.352;9.074;2023-08-30T01:58:35;29.57;;;22.43;;
21507;SDS011;10915;54.352;9.074;2023-08-30T02:01:01;36.07;;;26.87;;
21507;SDS011;10915;54.352;9.074;2023-08-30T02:03:27;37.47;;;28.00;;
21507;SDS011;10915;54.352;9.074;2023-08-30T02:11:46;33.20;;;24.30;;
21507;SDS011;10915;54.352;9.074;2023-08-30T02:14:14;28.60;;;22.17;;
21507;SDS011;10915;54.352;9.074;2023-08-30T02:16:46;33.03;;;23.50;;
21507;SDS011;10915;54.352;9.074;2023-08-30T02:19:13;31.50;;;24.20;;
21507;SDS011;10915;54.352;9.074;2023-08-30T02:21:42;36.73;;;26.03;;
21507;SDS011;10915;54.352;9.074;2023-08-30T02:24:08;36.73;;;24.93;;
21507;SDS011;10915;54.352;9.074;2023-08-30T02:26:35;32.47;;;24.57;;
21507;SDS011;10915;54.352;9.074;2023-08-30T02:29:00;33.13;;;24.80;;
21507;SDS011;10915;54.352;9.074;2023-08-30T02:31:26;33.57;;;25.47;;
21507;SDS011;10915;54.352;9.074;2023-08-30T02:33:51;34.43;;;25.27;;
21507;SDS011;10915;54.352;9.074;2023-08-30T02:36:17;29.67;;;22.63;;
21507;SDS011;10915;54.352;9.074;2023-08-30T02:38:42;28.37;;;21.87;;
21507;SDS011;10915;54.352;9.074;2023-08-30T02:41:08;30.33;;;22.13;;
21507;SDS011;10915;54.352;9.074;2023-08-30T02:43:35;33.90;;;25.10;;
21507;SDS011;10915;54.352;9.074;2023-08-30T02:46:01;31.33;;;22.80;;
21507;SDS011;10915;54.352;9.074;2023-08-30T02:48:28;35.43;;;24.60;;
21507;SDS011;10915;54.352;9.074;2023-08-30T02:50:54;28.10;;;22.90;;
21507;SDS011;10915;54.352;9.074;2023-08-30T02:53:20;31.40;;;23.43;;
21507;SDS011;10915;54.352;9.074;2023-08-30T02:55:46;31.73;;;23.00;;
21507;SDS011;10915;54.352;9.074;2023-08-30T02:58:13;32.13;;;24.37;;
21507;SDS011;10915;54.352;9.074;2023-08-30T03:00:39;31.27;;;23.80;;
21507;SDS011;10915;54.352;9.074;2023-08-30T03:03:04;28.87;;;21.77;;
21507;SDS011;10915;54.352;9.074;2023-08-30T03:05:30;28.07;;;22.03;;
21507;SDS011;10915;54.352;9.074;2023-08-30T03:07:56;25.00;;;21.13;;
21507;SDS011;10915;54.352;9.074;2023-08-30T03:10:22;24.87;;;20.20;;
21507;SDS011;10915;54.352;9.074;2023-08-30T03:12:48;24.23;;;20.53;;
21507;SDS011;10915;54.352;9.074;2023-08-30T03:15:13;26.67;;;20.23;;
21507;SDS011;10915;54.352;9.074;2023-08-30T03:17:39;23.53;;;19.70;;
21507;SDS011;10915;54.352;9.074;2023-08-30T03:20:04;23.80;;;19.17;;
21507;SDS011;10915;54.352;9.074;2023-08-30T03:22:31;22.10;;;18.10;;
21507;SDS011;10915;54.352;9.074;2023-08-30T03:24:57;22.90;;;19.87;;
21507;SDS011;10915;54.352;9.074;2023-08-30T03:27:23;22.53;;;18.33;;
21507;SDS011;10915;54.352;9.074;2023-08-30T03:29:49;22.43;;;17.97;;
21507;SDS011;10915;54.352;9.074;2023-08-30T03:32:15;19.90;;;16.93;;
21507;SDS011;10915;54.352;9.074;2023-08-30T03:34:44;20.93;;;17.27;;
21507;SDS011;10915;54.352;9.074;2023-08-30T03:37:10;21.97;;;18.53;;
21507;SDS011;10915;54.352;9.074;2023-08-30T03:39:36;19.83;;;16.90;;
21507;SDS011;10915;54.352;9.074;2023-08-30T03:42:02;20.70;;;16.93;;
21507;SDS011;10915;54.352;9.074;2023-08-30T03:44:27;19.03;;;16.53;;
21507;SDS011;10915;54.352;9.074;2023-08-30T03:46:53;18.73;;;16.73;;
21507;SDS011;10915;54.352;9.074;2023-08-30T03:49:20;20.03;;;16.57;;
21507;SDS011;10915;54.352;9.074;2023-08-30T03:51:46;17.60;;;15.73;;
21507;SDS011;10915;54.352;9.074;2023-08-30T03:54:11;17.77;;;15.10;;
21507;SDS011;10915;54.352;9.074;2023-08-30T03:56:41;18.63;;;16.10;;
21507;SDS011;10915;54.352;9.074;2023-08-30T03:59:09;20.13;;;15.67;;
21507;SDS011;10915;54.352;9.074;2023-08-30T04:01:36;18.83;;;15.97;;
21507;SDS011;10915;54.352;9.074;2023-08-30T04:04:01;19.17;;;16.27;;
21507;SDS011;10915;54.352;9.074;2023-08-30T04:06:27;20.77;;;16.63;;
21507;SDS011;10915;54.352;9.074;2023-08-30T04:08:53;17.80;;;15.90;;
21507;SDS011;10915;54.352;9.074;2023-08-30T04:11:18;20.53;;;17.00;;
21507;SDS011;10915;54.352;9.074;2023-08-30T04:13:44;16.93;;;15.13;;
21507;SDS011;10915;54.352;9.074;2023-08-30T04:16:09;18.30;;;16.00;;
21507;SDS011;10915;54.352;9.074;2023-08-30T04:18:35;18.97;;;15.77;;
21507;SDS011;10915;54.352;9.074;2023-08-30T04:21:01;19.30;;;16.73;;
21507;SDS011;10915;54.352;9.074;2023-08-30T04:23:27;19.03;;;17.00;;
21507;SDS011;10915;54.352;9.074;2023-08-30T04:25:56;21.00;;;17.13;;
21507;SDS011;10915;54.352;9.074;2023-08-30T04:28:22;17.63;;;15.47;;
21507;SDS011;10915;54.352;9.074;2023-08-30T04:30:47;19.00;;;16.17;;
21507;SDS011;10915;54.352;9.074;2023-08-30T04:33:13;18.63;;;16.63;;
21507;SDS011;10915;54.352;9.074;2023-08-30T04:35:40;18.23;;;16.03;;
21507;SDS011;10915;54.352;9.074;2023-08-30T04:38:06;18.03;;;16.10;;
21507;SDS011;10915;54.352;9.074;2023-08-30T04:40:31;19.00;;;15.87;;
21507;SDS011;10915;54.352;9.074;2023-08-30T04:42:58;18.70;;;16.70;;
21507;SDS011;10915;54.352;9.074;2023-08-30T04:45:23;18.63;;;15.80;;
21507;SDS011;10915;54.352;9.074;2023-08-30T04:47:50;20.33;;;16.13;;
21507;SDS011;10915;54.352;9.074;2023-08-30T04:50:15;19.97;;;16.80;;
21507;SDS011;10915;54.352;9.074;2023-08-30T04:52:42;17.27;;;15.43;;
21507;SDS011;10915;54.352;9.074;2023-08-30T04:55:08;17.67;;;15.80;;
21507;SDS011;10915;54.352;9.074;2023-08-30T04:57:34;17.53;;;15.70;;
21507;SDS011;10915;54.352;9.074;2023-08-30T05:57:33;17.43;;;15.00;;
21507;SDS011;10915;54.352;9.074;2023-08-30T06:56:58;15.17;;;12.10;;
21507;SDS011;10915;54.352;9.074;2023-08-30T06:59:24;13.20;;;11.77;;
21507;SDS011;10915;54.352;9.074;2023-08-30T07:01:50;12.80;;;11.50;;
21507;SDS011;10915;54.352;9.074;2023-08-30T07:04:16;13.07;;;10.60;;
21507;SDS011;10915;54.352;9.074;2023-08-30T07:06:41;11.47;;;10.27;;
21507;SDS011;10915;54.352;9.074;2023-08-30T07:09:07;11.57;;;10.37;;
21507;SDS011;10915;54.352;9.074;2023-08-30T07:11:33;12.27;;;11.07;;
21507;SDS011;10915;54.352;9.074;2023-08-30T07:13:59;11.50;;;10.30;;
21507;SDS011;10915;54.352;9.074;2023-08-30T07:16:25;13.60;;;10.77;;
21507;SDS011;10915;54.352;9.074;2023-08-30T07:18:50;11.63;;;10.43;;
21507;SDS011;10915;54.352;9.074;2023-08-30T07:21:16;12.33;;;11.00;;
21507;SDS011;10915;54.352;9.074;2023-08-30T07:23:41;13.30;;;11.50;;
21507;SDS011;10915;54.352;9.074;2023-08-30T07:26:07;13.43;;;11.37;;
21507;SDS011;10915;54.352;9.074;2023-08-30T07:28:32;12.53;;;11.23;;
21507;SDS011;10915;54.352;9.074;2023-08-30T07:31:02;13.17;;;11.27;;
21507;SDS011;10915;54.352;9.074;2023-08-30T07:33:28;13.13;;;11.40;;
21507;SDS011;10915;54.352;9.074;2023-08-30T07:35:54;10.57;;;9.53;;
21507;SDS011;10915;54.352;9.074;2023-08-30T07:38:19;17.80;;;12.00;;
21507;SDS011;10915;54.352;9.074;2023-08-30T07:40:45;12.47;;;10.40;;
21507;SDS011;10915;54.352;9.074;2023-08-30T07:43:10;10.50;;;9.40;;
21507;SDS011;10915;54.352;9.074;2023-08-30T07:45:36;12.50;;;11.23;;
21507;SDS011;10915;54.352;9.074;2023-08-30T07:48:02;11.40;;;10.30;;
21507;SDS011;10915;54.352;9.074;2023-08-30T07:50:27;12.87;;;11.57;;
21507;SDS011;10915;54.352;9.074;2023-08-30T07:52:53;12.40;;;10.90;;
21507;SDS011;10915;54.352;9.074;2023-08-30T07:55:19;14.17;;;10.50;;
21507;SDS011;10915;54.352;9.074;2023-08-30T07:57:44;12.43;;;10.63;;
21507;SDS011;10915;54.352;9.074;2023-08-30T08:00:11;12.43;;;11.13;;
21507;SDS011;10915;54.352;9.074;2023-08-30T08:02:37;11.77;;;10.53;;
21507;SDS011;10915;54.352;9.074;2023-08-30T08:05:02;12.07;;;10.73;;
21507;SDS011;10915;54.352;9.074;2023-08-30T08:07:28;11.10;;;10.00;;
21507;SDS011;10915;54.352;9.074;2023-08-30T08:09:54;11.07;;;9.97;;
21507;SDS011;10915;54.352;9.074;2023-08-30T08:12:20;12.97;;;10.20;;
21507;SDS011;10915;54.352;9.074;2023-08-30T08:14:46;12.73;;;10.70;;
21507;SDS011;10915;54.352;9.074;2023-08-30T08:17:11;11.07;;;9.97;;
21507;SDS011;10915;54.352;9.074;2023-08-30T08:19:37;11.80;;;9.03;;
21507;SDS011;10915;54.352;9.074;2023-08-30T08:22:04;11.33;;;8.43;;
21507;SDS011;10915;54.352;9.074;2023-08-30T08:24:30;11.93;;;10.73;;
21507;SDS011;10915;54.352;9.074;2023-08-30T08:26:56;10.20;;;9.10;;
21507;SDS011;10915;54.352;9.074;2023-08-30T08:29:22;11.17;;;8.97;;
21507;SDS011;10915;54.352;9.074;2023-08-30T08:31:47;10.30;;;9.20;;
21507;SDS011;10915;54.352;9.074;2023-08-30T08:34:13;10.70;;;8.27;;
21507;SDS011;10915;54.352;9.074;2023-08-30T08:36:39;9.07;;;8.13;;
21507;SDS011;10915;54.352;9.074;2023-08-30T08:39:06;12.57;;;8.80;;
21507;SDS011;10915;54.352;9.074;2023-08-30T08:41:38;8.63;;;7.60;;
21507;SDS011;10915;54.352;9.074;2023-08-30T08:44:06;9.30;;;8.30;;
21507;SDS011;10915;54.352;9.074;2023-08-30T08:46:33;11.03;;;7.83;;
21507;SDS011;10915;54.352;9.074;2023-08-30T08:49:05;9.37;;;8.37;;
21507;SDS011;10915;54.352;9.074;2023-08-30T08:51:33;9.67;;;7.93;;
21507;SDS011;10915;54.352;9.074;2023-08-30T08:54:02;11.27;;;7.77;;
21507;SDS011;10915;54.352;9.074;2023-08-30T08:56:29;9.60;;;7.50;;
21507;SDS011;10915;54.352;9.074;2023-08-30T08:58:55;10.93;;;8.23;;
21507;SDS011;10915;54.352;9.074;2023-08-30T09:01:21;8.93;;;7.93;;
21507;SDS011;10915;54.352;9.074;2023-08-30T09:03:48;10.07;;;8.37;;
21507;SDS011;10915;54.352;9.074;2023-08-30T09:06:15;9.23;;;7.70;;
21507;SDS011;10915;54.352;9.074;2023-08-30T09:08:41;10.63;;;8.30;;
21507;SDS011;10915;54.352;9.074;2023-08-30T09:11:06;8.17;;;6.77;;
21507;SDS011;10915;54.352;9.074;2023-08-30T09:13:32;7.53;;;6.57;;
21507;SDS011;10915;54.352;9.074;2023-08-30T09:15:57;9.03;;;7.17;;
21507;SDS011;10915;54.352;9.074;2023-08-30T09:18:24;7.73;;;5.93;;
21507;SDS011;10915;54.352;9.074;2023-08-30T09:21:10;9.63;;;6.77;;
21507;SDS011;10915;54.352;9.074;2023-08-30T09:23:37;9.53;;;7.13;;
21507;SDS011;10915;54.352;9.074;2023-08-30T09:26:03;9.50;;;7.23;;
21507;SDS011;10915;54.352;9.074;2023-08-30T09:28:30;9.30;;;7.50;;
21507;SDS011;10915;54.352;9.074;2023-08-30T09:30:57;9.00;;;6.57;;
21507;SDS011;10915;54.352;9.074;2023-08-30T09:33:30;8.33;;;6.60;;
21507;SDS011;10915;54.352;9.074;2023-08-30T09:35:59;8.67;;;6.27;;
21507;SDS011;10915;54.352;9.074;2023-08-30T09:38:25;9.70;;;7.10;;
21507;SDS011;10915;54.352;9.074;2023-08-30T09:41:04;9.27;;;7.40;;
21507;SDS011;10915;54.352;9.074;2023-08-30T09:43:30;8.83;;;6.73;;
21507;SDS011;10915;54.352;9.074;2023-08-30T09:45:57;8.53;;;6.83;;
21507;SDS011;10915;54.352;9.074;2023-08-30T09:48:27;9.70;;;6.40;;
21507;SDS011;10915;54.352;9.074;2023-08-30T09:50:53;9.53;;;6.90;;
21507;SDS011;10915;54.352;9.074;2023-08-30T09:53:20;12.57;;;9.30;;
21507;SDS011;10915;54.352;9.074;2023-08-30T09:55:49;10.57;;;7.57;;
21507;SDS011;10915;54.352;9.074;2023-08-30T09:58:15;9.17;;;7.17;;
21507;SDS011;10915;54.352;9.074;2023-08-30T10:00:41;9.23;;;7.20;;
21507;SDS011;10915;54.352;9.074;2023-08-30T10:03:08;8.90;;;6.60;;
21507;SDS011;10915;54.352;9.074;2023-08-30T10:05:34;10.77;;;6.27;;
21507;SDS011;10915;54.352;9.074;2023-08-30T10:08:01;9.17;;;6.57;;
21507;SDS011;10915;54.352;9.074;2023-08-30T10:10:29;13.90;;;6.20;;
21507;SDS011;10915;54.352;9.074;2023-08-30T10:12:56;6.67;;;4.90;;
21507;SDS011;10915;54.352;9.074;2023-08-30T10:15:22;7.87;;;5.73;;
21507;SDS011;10915;54.352;9.074;2023-08-30T10:17:51;8.30;;;6.07;;
21507;SDS011;10915;54.352;9.074;2023-08-30T10:20:19;10.43;;;6.37;;
21507;SDS011;10915;54.352;9.074;2023-08-30T10:22:45;8.10;;;5.93;;
21507;SDS011;10915;54.352;9.074;2023-08-30T10:25:13;9.00;;;6.50;;
21507;SDS011;10915;54.352;9.074;2023-08-30T10:27:45;9.47;;;6.20;;
21507;SDS011;10915;54.352;9.074;2023-08-30T10:30:12;8.00;;;5.37;;
21507;SDS011;10915;54.352;9.074;2023-08-30T10:32:39;7.40;;;5.90;;
21507;SDS011;10915;54.352;9.074;2023-08-30T10:35:12;7.85;;;5.60;;
21507;SDS011;10915;54.352;9.074;2023-08-30T10:37:39;7.87;;;5.97;;
21507;SDS011;10915;54.352;9.074;2023-08-30T10:40:05;7.70;;;5.33;;
21507;SDS011;10915;54.352;9.074;2023-08-30T10:42:32;7.90;;;5.73;;
21507;SDS011;10915;54.352;9.074;2023-08-30T10:47:31;8.43;;;5.93;;
21507;SDS011;10915;54.352;9.074;2023-08-30T10:50:03;9.57;;;5.77;;
21507;SDS011;10915;54.352;9.074;2023-08-30T10:52:30;8.33;;;6.20;;
21507;SDS011;10915;54.352;9.074;2023-08-30T10:55:08;7.83;;;5.40;;
21507;SDS011;10915;54.352;9.074;2023-08-30T10:57:43;8.20;;;4.90;;
21507;SDS011;10915;54.352;9.074;2023-08-30T11:00:20;7.73;;;4.60;;
21507;SDS011;10915;54.352;9.074;2023-08-30T11:02:50;6.13;;;4.20;;
21507;SDS011;10915;54.352;9.074;2023-08-30T11:05:17;6.37;;;4.37;;
21507;SDS011;10915;54.352;9.074;2023-08-30T11:07:44;6.63;;;4.63;;
21507;SDS011;10915;54.352;9.074;2023-08-30T11:10:10;6.10;;;4.07;;
21507;SDS011;10915;54.352;9.074;2023-08-30T11:12:37;7.37;;;4.73;;
21507;SDS011;10915;54.352;9.074;2023-08-30T11:15:11;8.33;;;4.87;;
21507;SDS011;10915;54.352;9.074;2023-08-30T11:17:45;7.87;;;4.80;;
21507;SDS011;10915;54.352;9.074;2023-08-30T11:20:12;8.40;;;5.17;;
21507;SDS011;10915;54.352;9.074;2023-08-30T11:22:39;7.87;;;5.13;;
21507;SDS011;10915;54.352;9.074;2023-08-30T11:25:10;8.07;;;5.40;;
21507;SDS011;10915;54.352;9.074;2023-08-30T11:27:38;8.63;;;4.87;;
21507;SDS011;10915;54.352;9.074;2023-08-30T11:30:03;8.07;;;5.07;;
21507;SDS011;10915;54.352;9.074;2023-08-30T11:32:37;7.00;;;4.97;;
21507;SDS011;10915;54.352;9.074;2023-08-30T11:35:09;8.07;;;5.53;;
21507;SDS011;10915;54.352;9.074;2023-08-30T11:37:35;7.03;;;4.80;;
21507;SDS011;10915;54.352;9.074;2023-08-30T11:40:01;8.07;;;5.18;;
21507;SDS011;10915;54.352;9.074;2023-08-30T11:42:28;6.87;;;4.60;;
21507;SDS011;10915;54.352;9.074;2023-08-30T11:44:56;6.63;;;4.27;;
21507;SDS011;10915;54.352;9.074;2023-08-30T11:47:23;8.70;;;4.93;;
21507;SDS011;10915;54.352;9.074;2023-08-30T11:49:51;10.27;;;5.80;;
21507;SDS011;10915;54.352;9.074;2023-08-30T11:52:18;10.03;;;5.03;;
21507;SDS011;10915;54.352;9.074;2023-08-30T11:54:46;9.00;;;5.20;;
21507;SDS011;10915;54.352;9.074;2023-08-30T11:57:15;7.57;;;5.05;;
21507;SDS011;10915;54.352;9.074;2023-08-30T11:59:41;6.90;;;4.83;;
21507;SDS011;10915;54.352;9.074;2023-08-30T12:02:07;7.23;;;4.63;;
21507;SDS011;10915;54.352;9.074;2023-08-30T12:04:43;7.13;;;4.07;;
21507;SDS011;10915;54.352;9.074;2023-08-30T12:07:20;7.73;;;5.00;;
21507;SDS011;10915;54.352;9.074;2023-08-30T12:09:49;6.67;;;4.70;;
21507;SDS011;10915;54.352;9.074;2023-08-30T12:12:15;8.40;;;5.00;;
21507;SDS011;10915;54.352;9.074;2023-08-30T12:14:40;8.57;;;5.20;;
21507;SDS011;10915;54.352;9.074;2023-08-30T12:17:06;7.97;;;4.90;;
21507;SDS011;10915;54.352;9.074;2023-08-30T12:19:33;9.20;;;5.17;;
21507;SDS011;10915;54.352;9.074;2023-08-30T12:22:06;9.00;;;5.20;;
21507;SDS011;10915;54.352;9.074;2023-08-30T12:24:45;6.97;;;5.07;;
21507;SDS011;10915;54.352;9.074;2023-08-30T12:27:11;7.93;;;5.85;;
21507;SDS011;10915;54.352;9.074;2023-08-30T12:29:38;9.07;;;6.70;;
21507;SDS011;10915;54.352;9.074;2023-08-30T12:32:05;10.47;;;6.83;;
21507;SDS011;10915;54.352;9.074;2023-08-30T12:34:31;8.60;;;5.80;;
21507;SDS011;10915;54.352;9.074;2023-08-30T12:36:57;10.97;;;6.30;;
21507;SDS011;10915;54.352;9.074;2023-08-30T12:39:22;11.00;;;7.13;;
21507;SDS011;10915;54.352;9.074;2023-08-30T12:41:48;8.50;;;6.23;;
21507;SDS011;10915;54.352;9.074;2023-08-30T12:44:13;8.63;;;6.03;;
21507;SDS011;10915;54.352;9.074;2023-08-30T12:46:39;9.80;;;6.30;;
21507;SDS011;10915;54.352;9.074;2023-08-30T12:49:05;10.00;;;6.17;;
21507;SDS011;10915;54.352;9.074;2023-08-30T12:51:30;9.37;;;6.43;;
21507;SDS011;10915;54.352;9.074;2023-08-30T12:53:56;9.33;;;6.53;;
21507;SDS011;10915;54.352;9.074;2023-08-30T12:56:21;10.47;;;6.13;;
21507;SDS011;10915;54.352;9.074;2023-08-30T12:58:47;8.37;;;6.07;;
21507;SDS011;10915;54.352;9.074;2023-08-30T13:01:13;9.27;;;5.80;;
21507;SDS011;10915;54.352;9.074;2023-08-30T13:03:38;8.17;;;6.10;;
21507;SDS011;10915;54.352;9.074;2023-08-30T13:06:04;10.97;;;6.50;;
21507;SDS011;10915;54.352;9.074;2023-08-30T13:08:30;11.27;;;7.00;;
21507;SDS011;10915;54.352;9.074;2023-08-30T13:10:58;9.77;;;6.33;;
21507;SDS011;10915;54.352;9.074;2023-08-30T13:13:24;8.63;;;6.10;;
21507;SDS011;10915;54.352;9.074;2023-08-30T13:15:50;8.57;;;7.03;;
21507;SDS011;10915;54.352;9.074;2023-08-30T13:18:16;9.93;;;6.97;;
21507;SDS011;10915;54.352;9.074;2023-08-30T13:20:42;8.10;;;6.20;;
21507;SDS011;10915;54.352;9.074;2023-08-30T13:23:08;8.97;;;6.03;;
21507;SDS011;10915;54.352;9.074;2023-08-30T13:25:37;8.63;;;6.40;;
21507;SDS011;10915;54.352;9.074;2023-08-30T13:28:04;9.97;;;6.93;;
21507;SDS011;10915;54.352;9.074;2023-08-30T13:30:30;8.20;;;6.43;;
21507;SDS011;10915;54.352;9.074;2023-08-30T13:32:57;10.23;;;6.23;;
21507;SDS011;10915;54.352;9.074;2023-08-30T13:35:33;8.37;;;5.63;;
21507;SDS011;10915;54.352;9.074;2023-08-30T13:37:58;9.70;;;6.53;;
21507;SDS011;10915;54.352;9.074;2023-08-30T13:40:24;8.70;;;6.23;;
21507;SDS011;10915;54.352;9.074;2023-08-30T13:42:50;8.80;;;6.53;;
21507;SDS011;10915;54.352;9.074;2023-08-30T13:45:16;10.23;;;7.13;;
21507;SDS011;10915;54.352;9.074;2023-08-30T13:47:42;10.43;;;7.03;;
21507;SDS011;10915;54.352;9.074;2023-08-30T13:50:09;9.73;;;7.50;;
21507;SDS011;10915;54.352;9.074;2023-08-30T13:52:35;10.60;;;6.97;;
21507;SDS011;10915;54.352;9.074;2023-08-30T13:55:00;10.17;;;8.17;;
21507;SDS011;10915;54.352;9.074;2023-08-30T13:57:26;11.47;;;8.30;;
21507;SDS011;10915;54.352;9.074;2023-08-30T13:59:52;13.33;;;8.27;;
21507;SDS011;10915;54.352;9.074;2023-08-30T15:12:44;14.17;;;10.20;;
21507;SDS011;10915;54.352;9.074;2023-08-30T15:15:21;11.23;;;9.70;;
21507;SDS011;10915;54.352;9.074;2023-08-30T15:17:53;13.33;;;10.30;;
21507;SDS011;10915;54.352;9.074;2023-08-30T15:20:26;12.90;;;10.90;;
21507;SDS011;10915;54.352;9.074;2023-08-30T15:22:52;12.63;;;11.30;;
21507;SDS011;10915;54.352;9.074;2023-08-30T15:25:30;13.87;;;11.47;;
21507;SDS011;10915;54.352;9.074;2023-08-30T15:28:02;16.47;;;12.57;;
21507;SDS011;10915;54.352;9.074;2023-08-30T15:30:31;14.20;;;12.43;;
21507;SDS011;10915;54.352;9.074;2023-08-30T15:33:19;14.67;;;12.90;;
21507;SDS011;10915;54.352;9.074;2023-08-30T15:35:46;13.37;;;11.93;;
21507;SDS011;10915;54.352;9.074;2023-08-30T15:38:35;12.97;;;11.20;;
21507;SDS011;10915;54.352;9.074;2023-08-30T15:41:18;13.83;;;11.83;;
21507;SDS011;10915;54.352;9.074;2023-08-30T15:44:07;13.37;;;11.40;;
21507;SDS011;10915;54.352;9.074;2023-08-30T15:46:43;13.60;;;11.30;;
21507;SDS011;10915;54.352;9.074;2023-08-30T15:49:09;12.40;;;10.50;;
21507;SDS011;10915;54.352;9.074;2023-08-30T15:51:35;12.30;;;10.53;;
21507;SDS011;10915;54.352;9.074;2023-08-30T15:54:01;11.33;;;10.07;;
21507;SDS011;10915;54.352;9.074;2023-08-30T15:56:28;12.53;;;11.13;;
21507;SDS011;10915;54.352;9.074;2023-08-30T15:58:54;11.70;;;10.50;;
21507;SDS011;10915;54.352;9.074;2023-08-30T16:01:20;14.47;;;11.07;;
21507;SDS011;10915;54.352;9.074;2023-08-30T16:03:51;13.23;;;11.83;;
21507;SDS011;10915;54.352;9.074;2023-08-30T16:06:17;12.73;;;10.70;;
21507;SDS011;10915;54.352;9.074;2023-08-30T16:12:08;12.30;;;10.70;;
21507;SDS011;10915;54.352;9.074;2023-08-30T16:14:34;14.47;;;11.73;;
21507;SDS011;10915;54.352;9.074;2023-08-30T16:16:59;12.13;;;10.53;;
21507;SDS011;10915;54.352;9.074;2023-08-30T16:19:25;13.33;;;11.33;;
21507;SDS011;10915;54.352;9.074;2023-08-30T16:21:51;14.53;;;11.87;;
21507;SDS011;10915;54.352;9.074;2023-08-30T16:24:19;15.23;;;12.33;;
21507;SDS011;10915;54.352;9.074;2023-08-30T16:26:56;13.57;;;12.13;;
21507;SDS011;10915;54.352;9.074;2023-08-30T16:29:25;14.33;;;11.37;;
21507;SDS011;10915;54.352;9.074;2023-08-30T16:31:55;14.57;;;12.70;;
21507;SDS011;10915;54.352;9.074;2023-08-30T16:34:24;13.90;;;12.40;;
21507;SDS011;10915;54.352;9.074;2023-08-30T16:36:53;13.90;;;12.03;;
21507;SDS011;10915;54.352;9.074;2023-08-30T16:39:19;13.53;;;11.20;;
21507;SDS011;10915;54.352;9.074;2023-08-30T16:41:46;14.87;;;12.43;;
21507;SDS011;10915;54.352;9.074;2023-08-30T16:44:17;12.63;;;11.30;;
21507;SDS011;10915;54.352;9.074;2023-08-30T16:46:44;13.20;;;11.77;;
21507;SDS011;10915;54.352;9.074;2023-08-30T16:49:14;14.50;;;12.97;;
21507;SDS011;10915;54.352;9.074;2023-08-30T16:51:55;14.20;;;11.93;;
21507;SDS011;10915;54.352;9.074;2023-08-30T16:54:28;14.83;;;12.67;;
21507;SDS011;10915;54.352;9.074;2023-08-30T16:56:54;13.63;;;12.23;;
21507;SDS011;10915;54.352;9.074;2023-08-30T16:59:38;13.97;;;12.50;;
21507;SDS011;10915;54.352;9.074;2023-08-30T17:02:32;14.90;;;12.87;;
21507;SDS011;10915;54.352;9.074;2023-08-30T17:05:13;13.03;;;11.63;;
21507;SDS011;10915;54.352;9.074;2023-08-30T17:07:57;14.43;;;12.17;;
21507;SDS011;10915;54.352;9.074;2023-08-30T17:10:33;14.20;;;12.67;;
21507;SDS011;10915;54.352;9.074;2023-08-30T17:13:40;17.70;;;12.30;;
21507;SDS011;10915;54.352;9.074;2023-08-30T17:16:17;14.70;;;12.87;;
21507;SDS011;10915;54.352;9.074;2023-08-30T17:18:51;14.30;;;12.80;;
21507;SDS011;10915;54.352;9.074;2023-08-30T17:21:23;15.40;;;13.60;;
21507;SDS011;10915;54.352;9.074;2023-08-30T17:23:51;15.03;;;13.43;;
21507;SDS011;10915;54.352;9.074;2023-08-30T17:26:21;16.07;;;14.37;;
21507;SDS011;10915;54.352;9.074;2023-08-30T17:28:47;14.53;;;13.03;;
21507;SDS011;10915;54.352;9.074;2023-08-30T17:31:13;15.03;;;13.53;;
21507;SDS011;10915;54.352;9.074;2023-08-30T17:33:40;15.30;;;12.37;;
21507;SDS011;10915;54.352;9.074;2023-08-30T17:36:21;13.60;;;12.20;;
21507;SDS011;10915;54.352;9.074;2023-08-30T17:38:49;15.23;;;13.67;;
21507;SDS011;10915;54.352;9.074;2023-08-30T17:41:45;15.27;;;13.77;;
21507;SDS011;10915;54.352;9.074;2023-08-30T17:44:47;14.63;;;13.03;;
21507;SDS011;10915;54.352;9.074;2023-08-30T17:47:57;15.37;;;13.70;;
21507;SDS011;10915;54.352;9.074;2023-08-30T18:18:28;13.57;;;12.17;;
21507;SDS011;10915;54.352;9.074;2023-08-30T18:21:24;14.77;;;13.27;;
21507;SDS011;10915;54.352;9.074;2023-08-30T18:24:15;15.43;;;13.83;;